createdAt,value
2023-05-20T09:06:28.192Z,1011.08
2023-05-20T09:07:28.156Z,1011.06
2023-05-20T09:08:28.135Z,1011.04
2023-05-20T09:09:28.138Z,1011.08
2023-05-20T09:10:28.120Z,1011.01
2023-05-20T09:11:28.115Z,1011.03
2023-05-20T09:12:28.093Z,1011.08
2023-05-20T09:13:28.073Z,1011.06
2023-05-20T09:14:28.076Z,1011.04
2023-05-20T09:15:28.065Z,1011.01
2023-05-20T09:16:28.063Z,1011.05
2023-05-20T09:17:28.075Z,1011.04
2023-05-20T09:18:28.020Z,1011.04
2023-05-20T09:19:28.104Z,1010.96
2023-05-20T09:20:27.983Z,1010.98
2023-05-20T09:21:27.963Z,1010.98
2023-05-20T09:22:27.956Z,1010.96
2023-05-20T09:23:27.965Z,1010.99
2023-05-20T09:24:27.933Z,1010.95
2023-05-20T09:25:27.957Z,1010.94
2023-05-20T09:26:27.903Z,1010.86
2023-05-20T09:27:27.873Z,1010.94
2023-05-20T09:28:27.885Z,1010.94
2023-05-20T09:29:27.889Z,1010.90
2023-05-20T09:30:27.858Z,1010.91
2023-05-20T09:31:27.845Z,1010.90
2023-05-20T09:32:27.819Z,1010.94
2023-05-20T09:33:27.802Z,1010.91
2023-05-20T09:34:27.800Z,1011.00
2023-05-20T09:35:27.804Z,1011.05
2023-05-20T09:36:27.769Z,1011.03
2023-05-20T09:37:27.748Z,1011.02
2023-05-20T09:38:27.741Z,1011.01
2023-05-20T09:39:27.737Z,1010.97
2023-05-20T09:40:27.705Z,1010.98
2023-05-20T09:41:27.711Z,1010.99
2023-05-20T09:42:27.672Z,1011.05
2023-05-20T09:43:27.683Z,1011.03
2023-05-20T09:44:27.642Z,1011.06
2023-05-20T09:45:27.657Z,1011.05
2023-05-20T09:46:27.788Z,1011.03
2023-05-20T09:47:27.629Z,1011.10
2023-05-20T09:48:27.609Z,1011.06
2023-05-20T09:49:27.586Z,1011.04
2023-05-20T09:50:27.595Z,1011.02
2023-05-20T09:51:27.578Z,1011.00
2023-05-20T09:52:27.571Z,1011.01
2023-05-20T09:53:27.551Z,1011.03
2023-05-20T09:54:27.515Z,1011.00
2023-05-20T09:55:27.547Z,1010.99
2023-05-20T09:56:27.489Z,1010.94
2023-05-20T09:57:27.510Z,1010.97
2023-05-20T09:58:27.462Z,1010.97
2023-05-20T09:59:27.478Z,1011.01
2023-05-20T10:00:27.464Z,1011.02
2023-05-20T10:01:27.479Z,1011.00
2023-05-20T10:02:27.518Z,1011.05
2023-05-20T10:03:27.444Z,1010.98
2023-05-20T10:04:27.398Z,1011.00
2023-05-20T10:05:27.412Z,1011.05
2023-05-20T10:06:27.377Z,1011.02
2023-05-20T10:07:40.790Z,1011.00
2023-05-20T10:08:27.355Z,1010.98
2023-05-20T10:09:27.348Z,1010.99
2023-05-20T10:10:27.325Z,1011.04
2023-05-20T10:11:27.306Z,1011.00
2023-05-20T10:12:27.304Z,1011.01
2023-05-20T10:13:27.294Z,1011.02
2023-05-20T10:14:27.265Z,1011.03
2023-05-20T10:15:27.297Z,1010.98
2023-05-20T10:16:27.277Z,1011.08
2023-05-20T10:17:27.279Z,1010.99
2023-05-20T10:18:27.230Z,1010.99
2023-05-20T10:19:27.234Z,1011.01
2023-05-20T10:20:27.212Z,1010.97
2023-05-20T10:21:27.192Z,1010.94
2023-05-20T10:22:27.159Z,1010.90
2023-05-20T10:23:27.150Z,1010.92
2023-05-20T10:24:27.149Z,1010.93
2023-05-20T10:25:27.151Z,1010.84
2023-05-20T10:26:27.103Z,1010.85
2023-05-20T10:27:27.111Z,1010.82
2023-05-20T10:28:27.097Z,1010.85
2023-05-20T10:29:27.086Z,1010.88
2023-05-20T10:30:27.072Z,1010.86
2023-05-20T10:31:27.057Z,1010.81
2023-05-20T10:32:27.117Z,1010.85
2023-05-20T10:33:27.066Z,1010.85
2023-05-20T10:34:27.013Z,1010.79
2023-05-20T10:35:27.043Z,1010.86
2023-05-20T10:36:26.984Z,1010.85
2023-05-20T10:37:26.971Z,1010.85
2023-05-20T10:38:26.978Z,1010.80
2023-05-20T10:39:26.959Z,1010.87
2023-05-20T10:40:26.950Z,1010.84
2023-05-20T10:41:26.951Z,1010.86
2023-05-20T10:42:26.910Z,1010.85
2023-05-20T10:43:26.889Z,1010.79
2023-05-20T10:44:26.904Z,1010.81
2023-05-20T10:45:26.914Z,1010.79
2023-05-20T10:46:37.987Z,1010.74
2023-05-20T10:47:26.918Z,1010.71
2023-05-20T10:48:26.921Z,1010.66
2023-05-20T10:49:27.848Z,1010.68
2023-05-20T10:50:26.840Z,1010.67
2023-05-20T10:51:26.808Z,1010.69
2023-05-20T10:52:26.806Z,1010.68
2023-05-20T10:53:33.919Z,1010.70
2023-05-20T10:54:26.785Z,1010.68
2023-05-20T10:55:26.774Z,1010.70
2023-05-20T10:56:26.735Z,1010.72
2023-05-20T10:57:26.714Z,1010.71
2023-05-20T10:58:26.734Z,1010.70
2023-05-20T10:59:26.711Z,1010.69
2023-05-20T11:00:26.699Z,1010.73
2023-05-20T11:01:26.776Z,1010.70
2023-05-20T11:02:26.820Z,1010.73
2023-05-20T11:03:26.691Z,1010.73
2023-05-20T11:04:26.692Z,1010.71
2023-05-20T11:05:26.659Z,1010.69
2023-05-20T11:06:26.669Z,1010.70
2023-05-20T11:07:26.668Z,1010.70
2023-05-20T11:08:29.392Z,1010.71
2023-05-20T11:09:26.573Z,1010.71
2023-05-20T11:10:26.621Z,1010.70
2023-05-20T11:11:26.574Z,1010.69
2023-05-20T11:12:26.579Z,1010.67
2023-05-20T11:13:26.735Z,1010.67
2023-05-20T11:14:26.520Z,1010.67
2023-05-20T11:15:26.546Z,1010.61
2023-05-20T11:16:26.554Z,1010.66
2023-05-20T11:17:26.564Z,1010.61
2023-05-20T11:18:26.506Z,1010.58
2023-05-20T11:27:29.121Z,1010.51
2023-05-20T11:28:29.063Z,1010.50
2023-05-20T11:29:29.162Z,1010.53
2023-05-20T11:30:29.057Z,1010.49
2023-05-20T11:31:29.052Z,1010.44
2023-05-20T11:32:29.233Z,1010.50
2023-05-20T11:33:29.014Z,1010.50
2023-05-20T11:34:30.026Z,1010.50
2023-05-20T11:35:28.997Z,1010.49
2023-05-20T11:36:28.960Z,1010.49
2023-05-20T11:37:28.978Z,1010.46
2023-05-20T11:38:28.955Z,1010.43
2023-05-20T11:39:28.934Z,1010.43
2023-05-20T11:40:35.742Z,1010.40
2023-05-20T11:41:28.937Z,1010.38
2023-05-20T11:42:28.905Z,1010.37
2023-05-20T11:43:28.900Z,1010.42
2023-05-20T11:44:28.864Z,1010.44
2023-05-20T11:45:28.897Z,1010.40
2023-05-20T11:46:29.014Z,1010.40
2023-05-20T11:47:28.882Z,1010.39
2023-05-20T11:48:28.857Z,1010.37
2023-05-20T11:49:28.863Z,1010.36
2023-05-20T11:50:28.798Z,1010.36
2023-05-20T11:51:28.799Z,1010.36
2023-05-20T11:52:28.791Z,1010.34
2023-05-20T11:53:28.780Z,1010.30
2023-05-20T11:54:28.744Z,1010.34
2023-05-20T11:55:28.760Z,1010.26
2023-05-20T11:56:28.734Z,1010.28
2023-05-20T11:57:28.730Z,1010.24
2023-05-20T11:58:28.709Z,1010.23
2023-05-20T11:59:28.690Z,1010.22
2023-05-20T12:00:31.269Z,1010.28
2023-05-20T12:01:28.714Z,1010.21
2023-05-20T12:02:28.695Z,1010.24
2023-05-20T12:03:28.762Z,1010.23
2023-05-20T12:04:28.660Z,1010.25
2023-05-20T12:05:28.654Z,1010.27
2023-05-20T12:06:28.602Z,1010.24
2023-05-20T12:07:28.619Z,1010.21
2023-05-20T12:08:28.596Z,1010.20
2023-05-20T12:09:28.595Z,1010.19
2023-05-20T12:10:28.567Z,1010.18
2023-05-20T12:11:28.569Z,1010.13
2023-05-20T12:12:28.554Z,1010.13
2023-05-20T12:13:28.529Z,1010.09
2023-05-20T12:14:28.534Z,1010.13
2023-05-20T12:15:28.518Z,1010.17
2023-05-20T12:16:28.622Z,1010.12
2023-05-20T12:17:28.508Z,1010.12
2023-05-20T12:18:28.463Z,1010.09
2023-05-20T12:19:28.520Z,1010.11
2023-05-20T12:20:28.472Z,1010.11
2023-05-20T12:21:28.463Z,1010.12
2023-05-20T12:22:28.417Z,1010.10
2023-05-20T12:23:28.412Z,1010.14
2023-05-20T12:24:28.400Z,1010.11
2023-05-20T12:33:30.827Z,1010.11
2023-05-20T12:34:30.828Z,1010.03
2023-05-20T12:35:30.783Z,1010.05
2023-05-20T12:36:30.785Z,1009.99
2023-05-20T12:37:30.761Z,1009.99
2023-05-20T12:49:35.402Z,1009.82
2023-05-20T12:50:35.664Z,1009.85
2023-05-20T12:51:35.345Z,1009.83
2023-05-20T12:52:35.357Z,1009.97
2023-05-20T12:53:35.324Z,1009.87
2023-05-20T12:54:35.320Z,1009.90
2023-05-20T12:55:35.322Z,1010.01
2023-05-20T12:56:35.286Z,1009.89
2023-05-20T12:57:35.269Z,1009.85
2023-05-20T12:58:35.268Z,1009.88
2023-05-20T12:59:35.243Z,1009.93
2023-05-20T13:00:35.457Z,1009.85
2023-05-20T13:01:35.342Z,1009.88
2023-05-20T13:02:36.326Z,1009.85
2023-05-20T13:03:35.224Z,1009.92
2023-05-20T13:04:35.189Z,1009.87
2023-05-20T13:05:35.189Z,1009.78
2023-05-20T13:06:35.196Z,1009.74
2023-05-20T13:07:35.163Z,1009.75
2023-05-20T13:08:35.171Z,1009.75
2023-05-20T13:09:35.149Z,1009.72
2023-05-20T13:10:35.289Z,1009.75
2023-05-20T13:11:35.121Z,1009.69
2023-05-20T13:12:35.160Z,1009.68
2023-05-20T13:13:35.100Z,1009.85
2023-05-20T13:14:35.073Z,1009.76
2023-05-20T13:15:35.088Z,1009.76
2023-05-20T13:16:35.114Z,1009.71
2023-05-20T13:17:35.055Z,1009.66
2023-05-20T13:18:35.045Z,1009.71
2023-05-20T13:19:35.049Z,1009.72
2023-05-20T13:20:35.391Z,1009.66
2023-05-20T13:21:35.022Z,1009.64
2023-05-20T13:22:34.978Z,1009.65
2023-05-20T13:23:34.961Z,1009.66
2023-05-20T13:24:34.983Z,1009.62
2023-05-20T13:26:43.179Z,1009.62
2023-05-20T13:27:43.165Z,1009.71
2023-05-20T13:28:43.157Z,1009.67
2023-05-20T13:29:43.136Z,1009.66
2023-05-20T13:30:43.154Z,1009.66
2023-05-20T13:31:43.121Z,1009.65
2023-05-20T13:32:43.128Z,1009.67
2023-05-20T13:33:43.106Z,1009.66
2023-05-20T13:34:43.090Z,1009.65
2023-05-20T13:35:43.082Z,1009.84
2023-05-20T13:36:43.064Z,1009.65
2023-05-20T13:37:43.041Z,1009.64
2023-05-20T13:38:43.027Z,1009.59
2023-05-20T13:39:43.039Z,1009.57
2023-05-20T13:40:43.028Z,1009.56
2023-05-20T13:41:43.024Z,1009.58
2023-05-20T13:42:42.993Z,1009.54
2023-05-20T13:43:42.994Z,1009.56
2023-05-20T13:44:42.961Z,1009.59
2023-05-20T13:45:42.958Z,1009.53
2023-05-20T13:49:08.845Z,1009.53
2023-05-20T13:50:08.831Z,1009.72
2023-05-20T13:51:08.808Z,1009.52
2023-05-20T13:52:08.839Z,1009.55
2023-05-20T13:53:08.779Z,1009.54
2023-05-20T13:54:08.777Z,1009.51
2023-05-20T13:55:08.739Z,1009.48
2023-05-20T13:56:08.753Z,1009.44
2023-05-20T13:57:08.734Z,1009.50
2023-05-20T13:58:08.741Z,1009.46
2023-05-20T13:59:08.709Z,1009.45
2023-05-20T14:00:08.693Z,1009.51
2023-05-20T14:01:08.702Z,1009.49
2023-05-20T14:02:08.726Z,1009.44
2023-05-20T14:03:08.745Z,1009.42
2023-05-20T14:04:08.659Z,1009.46
2023-05-20T14:05:08.631Z,1009.63
2023-05-20T14:06:08.614Z,1009.67
2023-05-20T14:07:09.851Z,1009.43
2023-05-20T14:08:08.610Z,1009.50
2023-05-20T14:09:08.575Z,1009.58
2023-05-20T14:10:08.610Z,1009.67
2023-05-20T14:11:08.550Z,1009.62
2023-05-20T14:12:08.566Z,1009.55
2023-05-20T14:13:08.932Z,1009.45
2023-05-20T14:14:08.561Z,1009.42
2023-05-20T14:15:08.507Z,1009.41
2023-05-20T14:16:08.552Z,1009.40
2023-05-20T14:17:08.485Z,1009.39
2023-05-20T14:18:08.550Z,1009.33
2023-05-20T14:19:09.137Z,1009.30
2023-05-20T14:20:08.466Z,1009.37
2023-05-20T14:21:08.443Z,1009.33
2023-05-20T14:22:08.448Z,1009.37
2023-05-20T14:23:08.440Z,1009.33
2023-05-20T14:24:08.431Z,1009.42
2023-05-20T14:25:08.399Z,1009.34
2023-05-20T14:26:08.393Z,1009.34
2023-05-20T14:27:08.398Z,1009.28
2023-05-20T14:28:08.403Z,1009.31
2023-05-20T14:29:08.388Z,1009.29
2023-05-20T14:35:47.131Z,1009.27
2023-05-20T14:36:47.126Z,1009.29
2023-05-20T14:37:47.080Z,1009.45
2023-05-20T14:38:48.818Z,1009.29
2023-05-20T14:39:47.083Z,1009.48
2023-05-20T14:40:47.064Z,1009.39
2023-05-20T14:41:47.036Z,1009.27
2023-05-20T14:42:47.040Z,1009.22
2023-05-20T14:43:47.008Z,1009.24
2023-05-20T14:49:22.444Z,1009.20
2023-05-20T14:50:22.446Z,1009.16
2023-05-20T14:51:22.416Z,1009.14
2023-05-20T14:52:22.420Z,1009.09
2023-05-20T14:53:22.423Z,1009.08
2023-05-20T14:54:22.380Z,1009.07
2023-05-20T14:55:22.378Z,1009.26
2023-05-20T14:56:22.376Z,1009.23
2023-05-20T14:57:22.360Z,1009.10
2023-05-20T14:58:22.419Z,1009.11
2023-05-20T14:59:22.334Z,1009.20
2023-05-20T15:00:22.318Z,1009.16
2023-05-20T15:01:22.351Z,1009.07
